Red Dog, Alaska
Current Conditions -  °F | °C
As of 10:56 PM on Tuesday 21 Oct 2014 (Local Time) from PAWN Reporting Station
Clear Clear  
Wind Chill:   Ceiling: Unl
Heat Index: 18°   Visibility: 10mi
Dew Point: 10°   Wind: 7mph
Humidity: 73%   Direction: 350°N
Pressure: 29.73"   Gusts: NA
Location:  68.03°N, 162.9°W
Report Text: PAWN 220656Z AUTO 35006KT 10SM CLR M08/M12 A2973 RMK AO1
Loading
Personal Weather Stations






























Interactive Weather Map
Tropical Storm Tracking
New forecast layout! Learn more

10-Day Weather Forecast

Advertisements
Track Severe Weather on mobile